Terminal Aerodrome Forecast
Issued by NWS

Home | Current Version | Previous Version | Graphics & Text | Print | Product List | Glossary On
Versions: 1 2 3 4 5 6 7 8 9 10 11 12 13 14 15 16 17 18 19 20 21 22 23 24 25 26 27 28 29
000
FTUS43 KLOT 221600 AAB
TAFORD
TAF AMD
KORD 221611Z 2216/2318 14010KT 6SM HZ SCT040 OVC060
     FM221730 12012KT 5SM -RA BR BKN015 OVC040
     FM222100 11012KT 3SM RA BR OVC007
     FM230300 12011KT 2SM -DZRA BR OVC004
     FM231200 15009KT 4SM BR OVC007
     FM231600 20011KT P6SM OVC012=

USA.gov is the U.S. government's official web portal to all federal, state and local government web resources and services.